createdAt,value
2022-11-22T00:00:59.710Z,7.20
2022-11-22T00:03:27.823Z,4.30
2022-11-22T00:05:55.836Z,4.97
2022-11-22T00:08:23.789Z,3.33
2022-11-22T00:10:52.629Z,4.87
2022-11-22T00:13:22.336Z,5.50
2022-11-22T00:16:00.061Z,4.93
2022-11-22T00:18:28.416Z,3.90
2022-11-22T00:20:56.564Z,6.67
2022-11-22T00:23:24.757Z,5.17
2022-11-22T00:25:52.790Z,5.37
2022-11-22T00:28:22.194Z,4.73
2022-11-22T00:30:50.171Z,5.03
2022-11-22T00:33:18.132Z,5.53
2022-11-22T00:35:46.571Z,5.37
2022-11-22T00:38:14.729Z,5.00
2022-11-22T00:40:42.748Z,4.87
2022-11-22T00:43:10.763Z,5.80
2022-11-22T00:45:42.026Z,5.67
2022-11-22T00:48:10.241Z,5.03
2022-11-22T00:50:38.169Z,5.23
2022-11-22T00:53:06.205Z,4.80
2022-11-22T00:55:34.222Z,4.67
2022-11-22T00:58:02.398Z,5.87
2022-11-22T01:00:30.419Z,5.57
2022-11-22T01:02:59.817Z,5.07
2022-11-22T01:05:27.847Z,5.63
2022-11-22T01:07:55.882Z,4.97
2022-11-22T01:10:23.955Z,5.03
2022-11-22T01:12:51.807Z,5.40
2022-11-22T01:15:19.930Z,4.87
2022-11-22T01:17:48.114Z,5.30
2022-11-22T01:20:17.820Z,6.40
2022-11-22T01:22:45.932Z,6.27
2022-11-22T01:25:13.993Z,5.20
2022-11-22T01:27:41.983Z,6.03
2022-11-22T01:30:10.658Z,4.77
2022-11-22T01:32:38.733Z,4.37
2022-11-22T01:35:10.269Z,4.83
2022-11-22T01:37:40.088Z,6.10
2022-11-22T01:40:09.495Z,6.73
2022-11-22T01:42:47.047Z,4.70
2022-11-22T01:45:45.523Z,4.63
2022-11-22T01:48:22.601Z,4.30
2022-11-22T01:50:54.594Z,4.13
2022-11-22T01:53:32.202Z,6.40
2022-11-22T01:56:03.125Z,3.53
2022-11-22T01:58:34.571Z,5.80
2022-11-22T02:01:03.769Z,5.40
2022-11-22T02:03:34.989Z,4.90
2022-11-22T02:06:03.977Z,6.63
2022-11-22T02:08:40.990Z,4.67
2022-11-22T02:11:10.956Z,5.23
2022-11-22T02:13:42.738Z,4.13
2022-11-22T02:16:11.688Z,5.27
2022-11-22T02:18:39.930Z,4.63
2022-11-22T02:21:09.063Z,5.97
2022-11-22T02:23:48.093Z,5.83
2022-11-22T02:26:17.704Z,6.70
2022-11-22T02:28:46.153Z,7.27
2022-11-22T02:31:36.433Z,4.40
2022-11-22T02:34:04.505Z,5.33
2022-11-22T02:36:38.725Z,6.47
2022-11-22T02:39:08.265Z,5.73
2022-11-22T02:41:38.956Z,5.50
2022-11-22T02:44:08.651Z,6.47
2022-11-22T02:46:36.802Z,5.77
2022-11-22T02:49:04.847Z,6.20
2022-11-22T02:51:32.878Z,5.40
2022-11-22T02:54:00.853Z,5.50
2022-11-22T02:56:28.911Z,7.20
2022-11-22T02:58:58.464Z,5.83
2022-11-22T03:01:26.646Z,5.47
2022-11-22T03:03:54.681Z,5.20
2022-11-22T03:06:22.669Z,7.43
2022-11-22T03:08:55.916Z,5.97
2022-11-22T03:11:24.662Z,7.27
2022-11-22T03:13:52.691Z,6.67
2022-11-22T03:16:22.157Z,5.83
2022-11-22T03:18:50.314Z,7.33
2022-11-22T03:21:18.372Z,7.20
2022-11-22T03:23:46.439Z,7.67
2022-11-22T03:26:14.913Z,5.30
2022-11-22T03:28:42.958Z,6.70
2022-11-22T03:31:11.394Z,5.33
2022-11-22T03:33:40.857Z,5.97
2022-11-22T03:36:09.083Z,5.50
2022-11-22T03:38:37.248Z,6.13
2022-11-22T03:41:05.342Z,6.40
2022-11-22T03:43:33.575Z,4.50
2022-11-22T03:46:01.547Z,4.63
2022-11-22T03:48:29.489Z,6.20
2022-11-22T03:51:05.775Z,4.97
2022-11-22T03:53:34.313Z,5.60
2022-11-22T03:56:02.268Z,6.73
2022-11-22T03:58:30.158Z,7.43
2022-11-22T04:00:58.295Z,7.07
2022-11-22T04:03:26.458Z,6.37
2022-11-22T04:05:54.447Z,5.67
2022-11-22T04:08:24.160Z,7.07
2022-11-22T04:10:52.254Z,5.93
2022-11-22T04:13:20.638Z,5.53
2022-11-22T04:15:47.739Z,6.50
2022-11-22T04:18:15.989Z,5.40
2022-11-22T04:21:03.521Z,7.50
2022-11-22T04:23:34.361Z,5.23
2022-11-22T04:26:01.518Z,5.93
2022-11-22T04:29:07.466Z,7.10
2022-11-22T04:31:34.647Z,4.90
2022-11-22T04:34:02.550Z,5.10
2022-11-22T04:36:30.517Z,5.20
2022-11-22T04:38:59.851Z,5.23
2022-11-22T04:41:27.902Z,5.77
2022-11-22T04:44:13.319Z,7.17
2022-11-22T04:46:41.342Z,5.43
2022-11-22T04:49:09.320Z,7.67
2022-11-22T04:51:55.025Z,5.67
2022-11-22T04:54:24.693Z,6.77
2022-11-22T04:56:52.639Z,7.27
2022-11-22T04:59:20.568Z,6.60
2022-11-22T05:01:48.534Z,6.00
2022-11-22T05:04:16.637Z,6.77
2022-11-22T05:06:44.695Z,6.53
2022-11-22T05:09:12.622Z,6.17
2022-11-22T05:11:42.070Z,8.20
2022-11-22T05:14:10.850Z,6.70
2022-11-22T05:16:38.867Z,6.33
2022-11-22T05:19:06.795Z,6.53
2022-11-22T05:21:37.398Z,6.57
2022-11-22T05:24:04.898Z,9.03
2022-11-22T05:26:34.786Z,7.03
2022-11-22T05:29:07.868Z,7.17
2022-11-22T05:31:37.459Z,8.57
2022-11-22T05:34:06.246Z,6.07
2022-11-22T05:36:35.529Z,6.20
2022-11-22T05:39:04.152Z,9.03
2022-11-22T05:41:32.043Z,4.73
2022-11-22T05:44:00.010Z,7.73
2022-11-22T05:46:31.314Z,7.07
2022-11-22T05:49:00.052Z,5.97
2022-11-22T05:51:34.683Z,5.13
2022-11-22T05:54:03.137Z,7.60
2022-11-22T05:56:31.326Z,8.87
2022-11-22T05:58:59.359Z,7.63
2022-11-22T06:01:27.597Z,6.43
2022-11-22T06:03:57.039Z,6.77
2022-11-22T06:06:25.164Z,7.10
2022-11-22T06:08:53.405Z,8.57
2022-11-22T06:11:28.064Z,6.00
2022-11-22T06:13:58.189Z,7.63
2022-11-22T06:16:27.644Z,5.93
2022-11-22T06:18:59.488Z,7.30
2022-11-22T06:21:28.725Z,7.80
2022-11-22T06:23:57.392Z,7.37
2022-11-22T06:26:26.510Z,6.30
2022-11-22T06:28:56.024Z,7.37
2022-11-22T06:31:27.785Z,8.33
2022-11-22T06:33:59.591Z,8.03
2022-11-22T06:36:32.019Z,5.57
2022-11-22T06:39:03.814Z,7.70
2022-11-22T06:41:34.698Z,7.00
2022-11-22T06:44:05.977Z,6.60
2022-11-22T06:46:36.805Z,7.80
2022-11-22T06:49:06.451Z,9.97
2022-11-22T06:51:34.718Z,7.53
2022-11-22T06:54:04.114Z,8.13
2022-11-22T06:56:34.251Z,7.17
2022-11-22T06:59:03.900Z,7.17
2022-11-22T07:01:34.054Z,6.80
2022-11-22T07:04:03.658Z,6.87
2022-11-22T07:06:34.969Z,8.27
2022-11-22T07:09:04.758Z,9.20
2022-11-22T07:11:33.792Z,6.63
2022-11-22T07:14:08.352Z,9.30
2022-11-22T07:16:38.513Z,8.30
2022-11-22T07:19:07.874Z,6.37
2022-11-22T07:21:40.109Z,8.07
2022-11-22T07:24:12.416Z,7.17
2022-11-22T07:26:42.889Z,8.77
2022-11-22T07:29:13.132Z,8.57
2022-11-22T07:31:41.263Z,6.17
2022-11-22T07:34:09.367Z,8.07
2022-11-22T07:36:39.022Z,7.07
2022-11-22T07:39:07.389Z,6.53
2022-11-22T07:41:37.540Z,7.43
2022-11-22T07:44:08.381Z,6.40
2022-11-22T07:46:44.131Z,8.33
2022-11-22T07:49:13.124Z,6.77
2022-11-22T07:51:42.733Z,8.87
2022-11-22T07:54:13.319Z,8.43
2022-11-22T07:56:41.535Z,8.87
2022-11-22T07:59:10.157Z,6.73
2022-11-22T08:01:43.297Z,9.37
2022-11-22T08:04:11.643Z,8.97
2022-11-22T08:06:48.434Z,6.30
2022-11-22T08:09:18.460Z,6.30
2022-11-22T08:11:46.676Z,6.47
2022-11-22T08:14:16.088Z,6.60
2022-11-22T08:16:44.241Z,5.43
2022-11-22T08:19:18.282Z,8.27
2022-11-22T08:21:56.951Z,9.73
2022-11-22T08:24:29.499Z,7.70
2022-11-22T08:27:05.253Z,8.37
2022-11-22T08:29:41.920Z,8.43
2022-11-22T08:32:13.118Z,7.20
2022-11-22T08:34:59.164Z,5.73
2022-11-22T08:42:45.959Z,6.60
2022-11-22T08:45:15.711Z,7.80
2022-11-22T08:47:43.772Z,4.47
2022-11-22T08:50:11.888Z,8.50
2022-11-22T08:52:39.819Z,8.13
2022-11-22T08:55:09.119Z,8.20
2022-11-22T08:57:37.086Z,7.77
2022-11-22T09:00:06.328Z,7.20
2022-11-22T09:02:35.885Z,6.07
2022-11-22T09:05:03.972Z,6.30
2022-11-22T09:10:19.992Z,7.73
2022-11-22T09:12:48.323Z,8.07
2022-11-22T09:15:16.848Z,7.10
2022-11-22T09:17:46.286Z,6.33
2022-11-22T09:20:14.312Z,8.73
2022-11-22T09:22:42.400Z,8.13
2022-11-22T09:25:11.178Z,4.97
2022-11-22T09:27:39.214Z,9.10
2022-11-22T09:30:08.602Z,8.23
2022-11-22T09:32:36.833Z,7.73
2022-11-22T09:35:06.943Z,6.90
2022-11-22T09:37:35.008Z,7.27
2022-11-22T09:40:03.040Z,8.27
2022-11-22T09:42:41.886Z,9.70
2022-11-22T09:45:38.360Z,6.50
2022-11-22T09:48:19.195Z,8.07
2022-11-22T09:50:57.638Z,8.90
2022-11-22T09:53:31.079Z,8.33
2022-11-22T09:56:01.404Z,7.40
2022-11-22T09:58:33.304Z,8.10
2022-11-22T10:01:06.580Z,8.40
2022-11-22T10:03:45.132Z,7.83
2022-11-22T10:06:21.770Z,7.67
2022-11-22T10:08:58.546Z,5.47
2022-11-22T10:11:36.712Z,8.90
2022-11-22T10:14:12.205Z,7.93
2022-11-22T10:16:45.207Z,8.13
2022-11-22T10:19:17.699Z,6.40
2022-11-22T10:21:48.258Z,8.03
2022-11-22T10:24:19.763Z,10.80
2022-11-22T10:26:47.989Z,8.90
2022-11-22T10:29:28.425Z,6.30
2022-11-22T10:32:05.253Z,6.10
2022-11-22T10:34:47.113Z,7.97
2022-11-22T10:37:25.187Z,6.63
2022-11-22T10:40:09.479Z,6.67
2022-11-22T10:42:58.685Z,9.93
2022-11-22T10:45:32.169Z,8.13
2022-11-22T10:48:11.043Z,7.80
2022-11-22T10:50:52.193Z,7.77
2022-11-22T10:53:28.784Z,9.47
2022-11-22T10:56:01.805Z,8.50
2022-11-22T10:58:39.203Z,8.43
2022-11-22T11:01:18.913Z,7.73
2022-11-22T11:03:50.789Z,6.87
2022-11-22T11:06:37.499Z,7.47
2022-11-22T11:10:09.001Z,8.73
2022-11-22T11:12:16.740Z,8.10
2022-11-22T11:14:49.770Z,10.00
2022-11-22T11:17:27.510Z,8.37
2022-11-22T11:19:58.850Z,8.13
2022-11-22T11:22:58.563Z,9.03
2022-11-22T11:25:33.959Z,8.53
2022-11-22T11:28:06.627Z,10.23
2022-11-22T11:30:43.904Z,9.57
2022-11-22T11:33:20.343Z,9.80
2022-11-22T11:35:48.435Z,9.57
2022-11-22T11:38:31.224Z,8.27
2022-11-22T11:41:17.529Z,10.53
2022-11-22T11:43:46.861Z,7.80
2022-11-22T11:46:18.892Z,10.30
2022-11-22T11:48:47.678Z,8.57
2022-11-22T11:51:19.642Z,10.47
2022-11-22T11:54:03.442Z,7.10
2022-11-22T11:56:44.087Z,7.77
2022-11-22T11:59:15.369Z,8.27
2022-11-22T12:01:56.395Z,9.17
2022-11-22T12:04:28.016Z,8.87
2022-11-22T12:07:02.969Z,8.50
2022-11-22T12:09:37.582Z,7.70
2022-11-22T12:12:32.200Z,8.30
2022-11-22T12:15:11.881Z,8.43
2022-11-22T12:17:50.093Z,9.67
2022-11-22T12:20:23.133Z,9.83
2022-11-22T12:23:02.448Z,9.40
2022-11-22T12:25:35.673Z,7.63
2022-11-22T12:28:20.093Z,9.73
2022-11-22T12:30:54.169Z,8.37
2022-11-22T12:33:26.145Z,8.73
2022-11-22T12:35:56.494Z,7.50
2022-11-22T12:38:28.907Z,8.70
2022-11-22T12:41:00.482Z,8.40
2022-11-22T12:43:34.336Z,8.83
2022-11-22T12:46:06.142Z,7.33
2022-11-22T12:48:38.690Z,8.97
2022-11-22T12:51:16.248Z,10.53
2022-11-22T12:53:47.716Z,8.77
2022-11-22T12:56:28.373Z,8.53
2022-11-22T12:59:05.073Z,9.13
2022-11-22T13:01:40.536Z,8.10
2022-11-22T13:04:20.191Z,9.07
2022-11-22T13:06:56.528Z,8.50
2022-11-22T13:09:30.260Z,8.93
2022-11-22T13:12:04.037Z,7.00
2022-11-22T13:14:36.726Z,7.33
2022-11-22T13:17:08.644Z,8.57
2022-11-22T13:19:45.318Z,8.30
2022-11-22T13:22:21.410Z,8.40
2022-11-22T13:25:07.590Z,8.67
2022-11-22T13:27:41.378Z,9.00
2022-11-22T13:30:20.010Z,7.53
2022-11-22T13:32:51.571Z,9.10
2022-11-22T13:35:27.311Z,9.00
2022-11-22T13:37:58.178Z,7.50
2022-11-22T13:40:31.392Z,9.47
2022-11-22T13:43:50.055Z,7.67
2022-11-22T13:47:04.617Z,8.53
2022-11-22T13:49:41.103Z,8.27
2022-11-22T13:52:45.848Z,8.13
2022-11-22T13:55:42.290Z,8.03
2022-11-22T13:58:49.089Z,7.93
2022-11-22T14:01:59.881Z,7.00
2022-11-22T14:04:41.938Z,7.50
2022-11-22T14:07:26.571Z,8.87
2022-11-22T14:09:59.568Z,7.97
2022-11-22T14:12:56.623Z,10.00
2022-11-22T14:15:47.327Z,9.97
2022-11-22T14:18:41.886Z,7.83
2022-11-22T14:21:16.134Z,9.20
2022-11-22T14:24:04.506Z,7.27
2022-11-22T14:26:41.697Z,8.70
2022-11-22T14:29:42.138Z,8.37
2022-11-22T14:32:17.445Z,8.70
2022-11-22T14:35:18.910Z,9.27
2022-11-22T14:37:57.759Z,7.47
2022-11-22T14:40:34.809Z,7.97
2022-11-22T14:43:28.927Z,7.60
2022-11-22T14:46:01.593Z,7.63
2022-11-22T14:48:34.715Z,8.50
2022-11-22T14:51:09.346Z,7.00
2022-11-22T14:53:44.879Z,9.53
2022-11-22T14:56:19.830Z,8.97
2022-11-22T14:58:58.783Z,7.53
2022-11-22T15:01:56.428Z,8.93
2022-11-22T15:09:10.582Z,7.90
2022-11-22T15:09:10.685Z,7.27
2022-11-22T15:11:22.837Z,8.07
2022-11-22T15:14:15.124Z,8.47
2022-11-22T15:57:32.712Z,8.67
2022-11-22T16:00:01.787Z,8.20
2022-11-22T16:02:32.633Z,10.30
2022-11-22T16:06:07.398Z,9.27
2022-11-22T16:07:52.591Z,8.13
2022-11-22T16:10:23.501Z,8.63
2022-11-22T16:12:52.563Z,7.40
2022-11-22T16:15:28.428Z,8.50
2022-11-22T16:18:06.679Z,9.50
2022-11-22T16:20:37.814Z,8.10
2022-11-22T16:23:17.143Z,7.77
2022-11-22T16:25:46.727Z,6.67
2022-11-22T16:28:29.817Z,6.60
2022-11-22T16:30:59.512Z,7.13
2022-11-22T16:33:27.843Z,7.10
2022-11-22T16:35:58.971Z,9.53
2022-11-22T16:38:28.209Z,7.60
2022-11-22T16:40:58.667Z,8.03
2022-11-22T16:43:28.232Z,9.07
2022-11-22T16:45:56.378Z,8.20
2022-11-22T16:48:34.314Z,7.13
2022-11-22T16:51:08.230Z,8.50
2022-11-22T16:53:42.591Z,8.17
2022-11-22T16:56:17.934Z,9.13
2022-11-22T16:58:46.359Z,8.00
2022-11-22T17:01:17.095Z,8.83
2022-11-22T17:03:46.111Z,7.73
2022-11-22T17:06:18.668Z,8.83
2022-11-22T17:08:47.180Z,8.37
2022-11-22T17:11:17.122Z,8.73
2022-11-22T17:13:45.471Z,8.17
2022-11-22T17:16:14.361Z,7.67
2022-11-22T17:18:42.608Z,9.03
2022-11-22T17:21:17.867Z,7.10
2022-11-22T17:23:46.435Z,7.50
2022-11-22T17:26:14.487Z,8.93
2022-11-22T17:28:42.410Z,7.70
2022-11-22T17:31:13.605Z,7.83
2022-11-22T17:33:41.730Z,7.67
2022-11-22T17:36:20.628Z,7.80
2022-11-22T17:38:48.875Z,8.23
2022-11-22T17:41:17.332Z,10.13
2022-11-22T17:43:45.458Z,8.77
2022-11-22T17:46:13.692Z,10.03
2022-11-22T17:48:42.123Z,10.20
2022-11-22T17:51:11.454Z,9.23
2022-11-22T17:53:40.998Z,8.07
2022-11-22T17:56:10.812Z,8.77
2022-11-22T17:58:39.401Z,9.60
2022-11-22T18:01:08.737Z,10.10
2022-11-22T18:03:36.849Z,10.73
2022-11-22T18:06:05.518Z,8.77
2022-11-22T18:08:34.165Z,8.60
2022-11-22T18:11:04.960Z,8.93
2022-11-22T18:13:35.414Z,10.20
2022-11-22T18:16:06.706Z,8.70
2022-11-22T18:21:25.272Z,9.57
2022-11-22T18:23:53.357Z,8.37
2022-11-22T18:26:39.881Z,9.43
2022-11-22T18:29:39.042Z,9.00
2022-11-22T18:31:57.859Z,9.10
2022-11-22T18:34:26.438Z,8.60
2022-11-22T18:36:57.515Z,7.77
2022-11-22T18:39:29.971Z,10.27
2022-11-22T18:41:59.901Z,11.10
2022-11-22T18:44:27.985Z,8.67
2022-11-22T18:46:55.990Z,8.27
2022-11-22T18:49:24.438Z,9.47
2022-11-22T18:51:52.391Z,11.03
2022-11-22T18:54:21.842Z,8.50
2022-11-22T18:56:50.040Z,11.23
2022-11-22T18:59:19.639Z,10.40
2022-11-22T19:01:47.694Z,11.03
2022-11-22T19:04:16.372Z,11.47
2022-11-22T19:06:44.685Z,8.73
2022-11-22T19:09:12.716Z,11.07
2022-11-22T19:11:40.730Z,11.70
2022-11-22T19:14:08.781Z,10.07
2022-11-22T19:16:38.102Z,9.33
2022-11-22T19:19:06.125Z,9.00
2022-11-22T19:21:34.286Z,9.83
2022-11-22T19:24:02.301Z,10.20
2022-11-22T19:26:30.355Z,10.23
2022-11-22T19:29:02.486Z,9.70
2022-11-22T19:31:31.529Z,8.87
2022-11-22T19:34:01.337Z,9.33
2022-11-22T19:36:33.843Z,9.40
2022-11-22T19:39:03.606Z,11.23
2022-11-22T19:41:32.024Z,9.17
2022-11-22T19:44:00.594Z,11.67
2022-11-22T19:46:29.304Z,8.50
2022-11-22T19:48:58.820Z,9.87
2022-11-22T19:51:29.451Z,10.20
2022-11-22T19:53:59.846Z,11.00
2022-11-22T19:56:30.354Z,10.43
2022-11-22T19:58:59.789Z,9.50
2022-11-22T20:01:29.368Z,9.77
2022-11-22T20:03:59.546Z,9.80
2022-11-22T20:06:29.496Z,8.47
2022-11-22T20:09:02.027Z,10.03
2022-11-22T20:11:30.011Z,8.80
2022-11-22T20:13:58.197Z,10.40
2022-11-22T20:16:28.355Z,8.40
2022-11-22T20:18:56.774Z,9.37
2022-11-22T20:21:25.868Z,11.90
2022-11-22T20:23:56.708Z,10.77
2022-11-22T20:26:26.216Z,8.63
2022-11-22T20:28:58.301Z,10.77
2022-11-22T20:31:27.568Z,10.27
2022-11-22T20:33:56.465Z,7.60
2022-11-22T20:36:26.170Z,9.10
2022-11-22T20:38:56.336Z,9.20
2022-11-22T20:41:26.436Z,9.93
2022-11-22T20:43:55.419Z,9.37
2022-11-22T20:46:25.013Z,11.17
2022-11-22T20:48:53.947Z,10.50
2022-11-22T20:51:23.851Z,8.97
2022-11-22T20:53:52.336Z,8.97
2022-11-22T20:56:22.146Z,10.23
2022-11-22T20:58:50.083Z,8.77
2022-11-22T21:01:19.871Z,8.53
2022-11-22T21:03:48.385Z,8.53
2022-11-22T21:06:17.402Z,9.47
2022-11-22T21:08:45.938Z,8.90
2022-11-22T21:11:15.618Z,9.23
2022-11-22T21:13:45.986Z,8.57
2022-11-22T21:16:23.308Z,9.57
2022-11-22T21:18:52.741Z,9.47
2022-11-22T21:21:23.700Z,7.00
2022-11-22T21:23:53.210Z,10.10
2022-11-22T21:26:21.952Z,8.90
2022-11-22T21:28:51.546Z,9.97
2022-11-22T21:31:20.118Z,10.10
2022-11-22T21:33:48.221Z,9.73
2022-11-22T21:36:16.284Z,8.47
2022-11-22T21:38:44.456Z,7.07
2022-11-22T21:41:38.844Z,9.50
2022-11-22T21:44:05.995Z,8.70
2022-11-22T21:46:34.854Z,8.27
2022-11-22T21:49:02.654Z,8.63
2022-11-22T21:51:30.446Z,7.77
2022-11-22T21:53:58.886Z,8.77
2022-11-22T21:56:27.237Z,8.97
2022-11-22T21:58:55.321Z,8.60
2022-11-22T22:01:25.321Z,8.97
2022-11-22T22:03:53.555Z,8.40
2022-11-22T22:06:21.542Z,8.20
2022-11-22T22:08:49.347Z,7.60
2022-11-22T22:11:17.319Z,7.10
2022-11-22T22:13:45.172Z,6.57
2022-11-22T22:16:18.749Z,7.73
2022-11-22T22:18:48.575Z,7.47
2022-11-22T22:21:17.911Z,9.13
2022-11-22T22:23:46.761Z,8.93
2022-11-22T22:26:16.537Z,7.27
2022-11-22T22:28:46.200Z,6.67
2022-11-22T22:31:17.484Z,7.50
2022-11-22T22:33:46.600Z,8.43
2022-11-22T22:36:16.350Z,7.73
2022-11-22T22:38:44.516Z,8.17
2022-11-22T22:41:14.526Z,9.33
2022-11-22T22:43:44.435Z,7.30
2022-11-22T22:46:13.909Z,6.20
2022-11-22T22:48:42.303Z,6.47
2022-11-22T22:51:13.700Z,7.37
2022-11-22T22:53:44.266Z,8.73
2022-11-22T22:56:13.115Z,9.30
2022-11-22T22:58:41.625Z,7.07
2022-11-22T23:01:12.032Z,7.43
2022-11-22T23:03:40.047Z,7.67
2022-11-22T23:06:09.224Z,8.87
2022-11-22T23:08:38.050Z,8.00
2022-11-22T23:11:09.686Z,10.67
2022-11-22T23:13:40.743Z,7.20
2022-11-22T23:16:10.914Z,7.57
2022-11-22T23:18:40.680Z,8.80
2022-11-22T23:21:11.203Z,8.20
2022-11-22T23:23:39.178Z,9.07
2022-11-22T23:26:10.733Z,9.10
2022-11-22T23:28:39.471Z,6.37
2022-11-22T23:31:08.583Z,7.00
2022-11-22T23:33:36.814Z,6.73
2022-11-22T23:36:06.286Z,7.73
2022-11-22T23:38:34.877Z,9.20
2022-11-22T23:41:03.153Z,9.57
2022-11-22T23:43:33.067Z,9.13
2022-11-22T23:46:01.172Z,9.90
2022-11-22T23:48:29.432Z,6.83
2022-11-22T23:50:57.544Z,7.00
2022-11-22T23:53:25.585Z,8.43
2022-11-22T23:55:53.579Z,7.53
2022-11-22T23:58:21.569Z,7.57
